createdAt,value
2023-05-21T00:00:05.342Z,676.00
2023-05-21T00:01:05.372Z,671.00
2023-05-21T00:02:05.437Z,681.00
2023-05-21T00:03:05.595Z,675.00
2023-05-21T00:04:05.634Z,685.00
2023-05-21T00:05:05.619Z,681.00
2023-05-21T00:06:05.684Z,679.00
2023-05-21T00:07:05.710Z,684.00
2023-05-21T00:08:05.803Z,673.00
2023-05-21T00:09:05.838Z,682.00
2023-05-21T00:10:05.884Z,668.00
2023-05-21T00:11:05.957Z,682.00
2023-05-21T00:12:06.002Z,670.00
2023-05-21T00:13:06.084Z,679.00
2023-05-21T00:14:06.127Z,671.00
2023-05-21T00:15:06.310Z,685.00
2023-05-21T00:16:06.278Z,685.00
2023-05-21T00:17:06.317Z,670.00
2023-05-21T00:18:06.408Z,666.00
2023-05-21T00:19:06.626Z,667.00
2023-05-21T00:20:06.485Z,677.00
2023-05-21T00:21:06.548Z,675.00
2023-05-21T00:22:06.602Z,668.00
2023-05-21T00:23:07.312Z,672.00
2023-05-21T00:24:06.806Z,663.00
2023-05-21T00:25:06.803Z,672.00
2023-05-21T00:26:06.841Z,673.00
2023-05-21T00:27:06.904Z,675.00
2023-05-21T00:28:06.963Z,674.00
2023-05-21T00:29:07.808Z,665.00
2023-05-21T00:30:07.093Z,666.00
2023-05-21T00:31:07.164Z,671.00
2023-05-21T00:32:07.253Z,677.00
2023-05-21T00:33:07.288Z,666.00
2023-05-21T00:34:07.322Z,666.00
2023-05-21T00:35:07.400Z,674.00
2023-05-21T00:36:08.298Z,683.00
2023-05-21T00:37:07.498Z,665.00
2023-05-21T00:38:07.571Z,671.00
2023-05-21T00:39:07.675Z,668.00
2023-05-21T00:40:07.731Z,674.00
2023-05-21T00:41:07.746Z,680.00
2023-05-21T00:42:07.788Z,662.00
2023-05-21T00:43:07.902Z,666.00
2023-05-21T00:44:07.920Z,664.00
2023-05-21T00:45:07.990Z,666.00
2023-05-21T00:46:08.085Z,668.00
2023-05-21T00:47:08.109Z,666.00
2023-05-21T00:48:08.218Z,667.00
2023-05-21T00:49:08.212Z,664.00
2023-05-21T00:50:08.265Z,664.00
2023-05-21T00:51:08.323Z,672.00
2023-05-21T00:52:08.392Z,663.00
2023-05-21T00:53:08.436Z,662.00
2023-05-21T00:54:08.481Z,667.00
2023-05-21T00:55:08.538Z,673.00
2023-05-21T00:56:09.309Z,666.00
2023-05-21T00:57:08.644Z,671.00
2023-05-21T00:58:08.695Z,671.00
2023-05-21T00:59:08.739Z,666.00
2023-05-21T01:00:08.854Z,665.00
2023-05-21T01:01:08.868Z,668.00
2023-05-21T01:02:08.946Z,659.00
2023-05-21T01:03:09.002Z,662.00
2023-05-21T01:04:09.002Z,673.00
2023-05-21T01:05:09.065Z,664.00
2023-05-21T01:06:09.128Z,664.00
2023-05-21T01:07:09.174Z,680.00
2023-05-21T01:08:09.193Z,661.00
2023-05-21T01:09:09.338Z,662.00
2023-05-21T01:10:09.309Z,665.00
2023-05-21T01:11:09.370Z,663.00
2023-05-21T01:12:09.419Z,665.00
2023-05-21T01:13:09.469Z,665.00
2023-05-21T01:14:09.530Z,659.00
2023-05-21T01:15:09.590Z,662.00
2023-05-21T01:16:09.649Z,665.00
2023-05-21T01:17:10.513Z,660.00
2023-05-21T01:18:09.780Z,659.00
2023-05-21T01:19:09.997Z,660.00
2023-05-21T01:20:09.871Z,665.00
2023-05-21T01:21:09.924Z,657.00
2023-05-21T01:22:09.984Z,658.00
2023-05-21T01:23:10.014Z,656.00
2023-05-21T01:24:10.061Z,659.00
2023-05-21T01:25:10.096Z,662.00
2023-05-21T01:26:10.174Z,660.00
2023-05-21T01:27:10.222Z,661.00
2023-05-21T01:28:10.283Z,664.00
2023-05-21T01:29:10.342Z,658.00
2023-05-21T01:30:10.390Z,662.00
2023-05-21T01:31:10.467Z,663.00
2023-05-21T01:32:10.520Z,661.00
2023-05-21T01:33:10.662Z,660.00
2023-05-21T01:34:10.662Z,662.00
2023-05-21T01:35:10.694Z,662.00
2023-05-21T01:36:10.726Z,661.00
2023-05-21T01:37:10.791Z,660.00
2023-05-21T01:38:10.864Z,651.00
2023-05-21T01:39:10.918Z,656.00
2023-05-21T01:40:10.971Z,655.00
2023-05-21T01:41:11.040Z,660.00
2023-05-21T01:42:11.087Z,660.00
2023-05-21T01:43:11.149Z,659.00
2023-05-21T01:44:11.190Z,662.00
2023-05-21T01:45:11.334Z,663.00
2023-05-21T01:46:11.360Z,658.00
2023-05-21T01:47:11.368Z,658.00
2023-05-21T01:48:11.435Z,662.00
2023-05-21T01:49:11.456Z,659.00
2023-05-21T01:50:11.503Z,658.00
2023-05-21T01:51:12.335Z,659.00
2023-05-21T01:52:11.601Z,659.00
2023-05-21T01:53:11.663Z,658.00
2023-05-21T01:54:11.693Z,659.00
2023-05-21T01:55:11.819Z,663.00
2023-05-21T01:56:11.790Z,662.00
2023-05-21T01:57:11.850Z,666.00
2023-05-21T01:58:11.911Z,662.00
2023-05-21T01:59:12.010Z,658.00
2023-05-21T02:00:12.046Z,658.00
2023-05-21T02:01:12.053Z,653.00
2023-05-21T02:02:12.172Z,658.00
2023-05-21T02:03:12.222Z,661.00
2023-05-21T02:04:12.249Z,656.00
2023-05-21T02:05:12.270Z,659.00
2023-05-21T02:06:12.328Z,660.00
2023-05-21T02:07:12.384Z,658.00
2023-05-21T02:08:12.430Z,663.00
2023-05-21T02:09:12.460Z,653.00
2023-05-21T02:10:12.520Z,663.00
2023-05-21T02:11:12.852Z,656.00
2023-05-21T02:12:12.619Z,653.00
2023-05-21T02:13:12.684Z,657.00
2023-05-21T02:14:12.726Z,652.00
2023-05-21T02:15:12.768Z,655.00
2023-05-21T02:16:12.880Z,656.00
2023-05-21T02:17:12.870Z,659.00
2023-05-21T02:18:12.939Z,658.00
2023-05-21T02:19:13.017Z,657.00
2023-05-21T02:20:12.996Z,660.00
2023-05-21T02:21:13.028Z,663.00
2023-05-21T02:22:13.019Z,654.00
2023-05-21T02:23:13.152Z,657.00
2023-05-21T02:24:13.106Z,657.00
2023-05-21T02:25:13.122Z,661.00
2023-05-21T02:26:13.116Z,657.00
2023-05-21T02:27:13.139Z,656.00
2023-05-21T02:28:13.126Z,654.00
2023-05-21T02:29:13.116Z,655.00
2023-05-21T02:30:13.111Z,657.00
2023-05-21T02:31:13.116Z,659.00
2023-05-21T02:32:13.121Z,654.00
2023-05-21T02:33:13.116Z,659.00
2023-05-21T02:34:13.126Z,653.00
2023-05-21T02:35:13.135Z,655.00
2023-05-21T02:36:13.307Z,660.00
2023-05-21T02:37:13.183Z,656.00
2023-05-21T02:38:13.202Z,656.00
2023-05-21T02:39:13.249Z,656.00
2023-05-21T02:40:13.367Z,657.00
2023-05-21T02:41:13.875Z,657.00
2023-05-21T02:42:13.296Z,657.00
2023-05-21T02:43:15.405Z,658.00
2023-05-21T02:44:13.334Z,656.00
2023-05-21T02:45:13.328Z,656.00
2023-05-21T02:46:13.424Z,656.00
2023-05-21T02:47:13.311Z,655.00
2023-05-21T02:48:13.488Z,653.00
2023-05-21T02:49:13.302Z,660.00
2023-05-21T02:50:13.367Z,655.00
2023-05-21T02:51:13.274Z,653.00
2023-05-21T02:52:13.279Z,653.00
2023-05-21T02:53:13.262Z,654.00
2023-05-21T02:54:13.260Z,647.00
2023-05-21T02:55:13.270Z,651.00
2023-05-21T02:56:13.245Z,656.00
2023-05-21T02:57:13.297Z,655.00
2023-05-21T02:58:13.230Z,655.00
2023-05-21T02:59:13.224Z,659.00
2023-05-21T03:00:13.218Z,654.00
2023-05-21T03:01:13.306Z,649.00
2023-05-21T03:02:13.240Z,651.00
2023-05-21T03:03:13.299Z,657.00
2023-05-21T03:04:13.180Z,652.00
2023-05-21T03:05:13.190Z,649.00
2023-05-21T03:06:13.161Z,649.00
2023-05-21T03:07:13.164Z,651.00
2023-05-21T03:08:13.165Z,654.00
2023-05-21T03:09:13.150Z,649.00
2023-05-21T03:10:13.147Z,650.00
2023-05-21T03:11:13.142Z,653.00
2023-05-21T03:12:13.139Z,650.00
2023-05-21T03:13:13.153Z,651.00
2023-05-21T03:14:13.109Z,649.00
2023-05-21T03:15:13.189Z,646.00
2023-05-21T03:16:13.139Z,649.00
2023-05-21T03:17:13.094Z,651.00
2023-05-21T03:18:13.143Z,650.00
2023-05-21T03:19:13.108Z,645.00
2023-05-21T03:20:13.082Z,648.00
2023-05-21T03:21:13.070Z,650.00
2023-05-21T03:22:13.062Z,650.00
2023-05-21T03:23:15.533Z,647.00
2023-05-21T03:24:13.052Z,647.00
2023-05-21T03:25:13.079Z,649.00
2023-05-21T03:26:13.041Z,649.00
2023-05-21T03:27:13.048Z,650.00
2023-05-21T03:28:13.019Z,649.00
2023-05-21T03:29:13.015Z,650.00
2023-05-21T03:30:13.012Z,653.00
2023-05-21T03:31:13.004Z,652.00
2023-05-21T03:32:13.089Z,653.00
2023-05-21T03:33:12.991Z,644.00
2023-05-21T03:34:13.887Z,647.00
2023-05-21T03:35:12.980Z,652.00
2023-05-21T03:36:12.992Z,651.00
2023-05-21T03:37:12.967Z,650.00
2023-05-21T03:38:13.043Z,652.00
2023-05-21T03:39:12.940Z,644.00
2023-05-21T03:40:13.911Z,650.00
2023-05-21T03:41:12.938Z,645.00
2023-05-21T03:42:12.931Z,648.00
2023-05-21T03:43:12.928Z,646.00
2023-05-21T03:44:12.901Z,646.00
2023-05-21T03:45:12.900Z,648.00
2023-05-21T03:46:12.954Z,646.00
2023-05-21T03:47:12.890Z,646.00
2023-05-21T03:48:12.882Z,644.00
2023-05-21T03:49:12.887Z,648.00
2023-05-21T03:50:12.891Z,649.00
2023-05-21T03:51:12.871Z,646.00
2023-05-21T03:52:12.857Z,646.00
2023-05-21T03:53:12.859Z,648.00
2023-05-21T03:54:12.855Z,646.00
2023-05-21T03:55:12.837Z,648.00
2023-05-21T03:56:12.841Z,646.00
2023-05-21T03:57:12.823Z,646.00
2023-05-21T03:58:12.812Z,648.00
2023-05-21T03:59:12.813Z,648.00
2023-05-21T04:00:12.799Z,648.00
2023-05-21T04:01:12.810Z,649.00
2023-05-21T04:02:12.820Z,645.00
2023-05-21T04:03:13.586Z,646.00
2023-05-21T04:04:12.895Z,646.00
2023-05-21T04:05:12.775Z,644.00
2023-05-21T04:06:12.844Z,648.00
2023-05-21T04:07:12.753Z,647.00
2023-05-21T04:08:12.752Z,647.00
2023-05-21T04:09:12.738Z,644.00
2023-05-21T04:10:12.736Z,647.00
2023-05-21T04:11:12.768Z,648.00
2023-05-21T04:12:12.765Z,647.00
2023-05-21T04:13:12.710Z,648.00
2023-05-21T04:14:12.703Z,647.00
2023-05-21T04:15:12.709Z,642.00
2023-05-21T04:16:12.794Z,647.00
2023-05-21T04:17:12.745Z,643.00
2023-05-21T04:18:12.679Z,640.00
2023-05-21T04:19:12.741Z,645.00
2023-05-21T04:20:12.664Z,645.00
2023-05-21T04:21:12.677Z,642.00
2023-05-21T04:22:12.662Z,640.00
2023-05-21T04:23:12.638Z,642.00
2023-05-21T04:24:12.634Z,643.00
2023-05-21T04:25:12.629Z,646.00
2023-05-21T04:26:12.621Z,643.00
2023-05-21T04:27:12.631Z,650.00
2023-05-21T04:28:12.607Z,648.00
2023-05-21T04:29:12.612Z,644.00
2023-05-21T04:30:12.598Z,639.00
2023-05-21T04:31:12.622Z,640.00
2023-05-21T04:32:12.594Z,642.00
2023-05-21T04:33:12.590Z,643.00
2023-05-21T04:34:12.567Z,643.00
2023-05-21T04:35:12.558Z,643.00
2023-05-21T04:36:12.557Z,643.00
2023-05-21T04:37:12.565Z,643.00
2023-05-21T04:38:12.535Z,646.00
2023-05-21T04:39:12.554Z,642.00
2023-05-21T04:40:12.527Z,643.00
2023-05-21T04:41:12.532Z,644.00
2023-05-21T04:42:12.525Z,644.00
2023-05-21T04:43:12.503Z,643.00
2023-05-21T04:44:12.498Z,637.00
2023-05-21T04:45:12.488Z,643.00
2023-05-21T04:46:13.418Z,639.00
2023-05-21T04:47:12.484Z,640.00
2023-05-21T04:48:12.471Z,643.00
2023-05-21T04:49:12.464Z,645.00
2023-05-21T04:50:12.515Z,639.00
2023-05-21T04:51:12.453Z,645.00
2023-05-21T04:52:12.438Z,641.00
2023-05-21T04:53:12.429Z,644.00
2023-05-21T04:54:12.442Z,642.00
2023-05-21T04:55:12.427Z,643.00
2023-05-21T04:56:12.414Z,640.00
2023-05-21T04:57:12.411Z,642.00
2023-05-21T04:58:12.418Z,641.00
2023-05-21T04:59:12.382Z,639.00
2023-05-21T05:00:12.401Z,640.00
2023-05-21T05:01:12.444Z,639.00
2023-05-21T05:02:12.372Z,642.00
2023-05-21T05:03:12.433Z,640.00
2023-05-21T05:04:12.394Z,642.00
2023-05-21T05:05:12.423Z,642.00
2023-05-21T05:06:12.462Z,635.00
2023-05-21T05:07:12.475Z,641.00
2023-05-21T05:08:15.834Z,638.00
2023-05-21T05:09:12.503Z,642.00
2023-05-21T05:10:12.481Z,636.00
2023-05-21T05:11:12.491Z,635.00
2023-05-21T05:12:12.481Z,635.00
2023-05-21T05:13:12.498Z,636.00
2023-05-21T05:14:12.471Z,641.00
2023-05-21T05:15:12.471Z,638.00
2023-05-21T05:16:12.463Z,637.00
2023-05-21T05:17:12.447Z,636.00
2023-05-21T05:18:12.437Z,637.00
2023-05-21T05:19:12.436Z,633.00
2023-05-21T05:20:12.426Z,634.00
2023-05-21T05:21:12.421Z,631.00
2023-05-21T05:22:13.535Z,637.00
2023-05-21T05:23:12.411Z,632.00
2023-05-21T05:24:12.403Z,630.00
2023-05-21T05:25:12.417Z,636.00
2023-05-21T05:26:12.407Z,628.00
2023-05-21T05:27:12.364Z,635.00
2023-05-21T05:28:12.504Z,632.00
2023-05-21T05:29:12.361Z,631.00
2023-05-21T05:30:12.364Z,638.00
2023-05-21T05:31:12.396Z,630.00
2023-05-21T05:32:12.353Z,631.00
2023-05-21T05:33:12.341Z,632.00
2023-05-21T05:34:12.332Z,629.00
2023-05-21T05:35:12.328Z,626.00
2023-05-21T05:36:12.338Z,625.00
2023-05-21T05:37:12.322Z,630.00
2023-05-21T05:38:12.342Z,635.00
2023-05-21T05:39:12.315Z,635.00
2023-05-21T05:40:12.366Z,633.00
2023-05-21T05:41:12.417Z,629.00
2023-05-21T05:42:12.464Z,632.00
2023-05-21T05:43:12.532Z,628.00
2023-05-21T05:44:12.645Z,630.00
2023-05-21T05:45:12.646Z,632.00
2023-05-21T05:46:12.746Z,631.00
2023-05-21T05:47:12.739Z,626.00
2023-05-21T05:48:12.800Z,632.00
2023-05-21T05:49:12.853Z,628.00
2023-05-21T05:50:12.897Z,622.00
2023-05-21T05:51:12.941Z,629.00
2023-05-21T05:52:12.998Z,626.00
2023-05-21T05:53:13.044Z,621.00
2023-05-21T05:54:13.089Z,626.00
2023-05-21T05:55:13.130Z,628.00
2023-05-21T05:56:13.183Z,620.00
2023-05-21T05:57:13.228Z,625.00
2023-05-21T05:58:13.275Z,629.00
2023-05-21T05:59:13.327Z,621.00
2023-05-21T06:00:13.374Z,625.00
2023-05-21T06:01:13.428Z,621.00
2023-05-21T06:02:13.494Z,622.00
2023-05-21T06:03:13.564Z,613.00
2023-05-21T06:04:13.586Z,619.00
2023-05-21T06:05:13.608Z,625.00
2023-05-21T06:06:13.800Z,621.00
2023-05-21T06:07:13.717Z,618.00
2023-05-21T06:08:13.772Z,622.00
2023-05-21T06:09:13.812Z,625.00
2023-05-21T06:10:13.871Z,619.00
2023-05-21T06:11:13.908Z,621.00
2023-05-21T06:12:15.074Z,619.00
2023-05-21T06:13:13.998Z,619.00
2023-05-21T06:14:14.054Z,621.00
2023-05-21T06:15:14.092Z,617.00
2023-05-21T06:16:14.301Z,615.00
2023-05-21T06:17:14.196Z,620.00
2023-05-21T06:18:14.220Z,614.00
2023-05-21T06:19:14.312Z,621.00
2023-05-21T06:20:14.312Z,618.00
2023-05-21T06:21:14.352Z,619.00
2023-05-21T06:22:14.398Z,621.00
2023-05-21T06:23:14.436Z,611.00
2023-05-21T06:24:14.477Z,620.00
2023-05-21T06:25:14.572Z,612.00
2023-05-21T06:26:14.563Z,613.00
2023-05-21T06:27:14.603Z,609.00
2023-05-21T06:28:14.643Z,611.00
2023-05-21T06:29:15.582Z,614.00
2023-05-21T06:30:15.474Z,612.00
2023-05-21T06:31:14.748Z,611.00
2023-05-21T06:32:14.789Z,607.00
2023-05-21T06:33:14.853Z,613.00
2023-05-21T06:34:14.845Z,607.00
2023-05-21T06:35:14.885Z,607.00
2023-05-21T06:36:14.905Z,606.00
2023-05-21T06:37:14.945Z,600.00
2023-05-21T06:38:14.967Z,604.00
2023-05-21T06:39:14.991Z,605.00
2023-05-21T06:40:15.037Z,605.00
2023-05-21T06:41:15.062Z,605.00
2023-05-21T06:42:15.094Z,606.00
2023-05-21T06:43:15.121Z,602.00
2023-05-21T06:44:15.158Z,607.00
2023-05-21T06:45:15.206Z,602.00
2023-05-21T06:46:15.244Z,606.00
2023-05-21T06:47:15.225Z,601.00
2023-05-21T06:48:15.251Z,598.00
2023-05-21T06:49:15.275Z,600.00
2023-05-21T06:50:15.293Z,600.00
2023-05-21T06:51:15.318Z,602.00
2023-05-21T06:52:15.335Z,596.00
2023-05-21T06:53:15.350Z,602.00
2023-05-21T06:54:15.415Z,600.00
2023-05-21T06:55:15.952Z,599.00
2023-05-21T06:56:15.412Z,597.00
2023-05-21T06:57:15.437Z,604.00
2023-05-21T06:58:15.449Z,605.00
2023-05-21T06:59:15.469Z,607.00
2023-05-21T07:00:15.478Z,603.00
2023-05-21T07:01:15.626Z,606.00
2023-05-21T07:02:15.603Z,608.00
2023-05-21T07:03:15.693Z,608.00
2023-05-21T07:04:15.595Z,615.00
2023-05-21T07:05:15.694Z,613.00
2023-05-21T07:06:15.618Z,609.00
2023-05-21T07:07:15.610Z,611.00
2023-05-21T07:08:15.607Z,612.00
2023-05-21T07:09:15.621Z,612.00
2023-05-21T07:10:16.455Z,611.00
2023-05-21T07:11:15.675Z,617.00
2023-05-21T07:12:15.703Z,614.00
2023-05-21T07:13:15.767Z,615.00
2023-05-21T07:14:15.818Z,611.00
2023-05-21T07:15:15.876Z,619.00
2023-05-21T07:16:15.980Z,615.00
2023-05-21T07:17:16.002Z,618.00
2023-05-21T07:18:16.031Z,618.00
2023-05-21T07:19:16.099Z,614.00
2023-05-21T07:20:16.100Z,620.00
2023-05-21T07:21:16.160Z,612.00
2023-05-21T07:22:16.194Z,615.00
2023-05-21T07:23:16.252Z,616.00
2023-05-21T07:24:16.960Z,616.00
2023-05-21T07:25:16.443Z,620.00
2023-05-21T07:26:16.439Z,615.00
2023-05-21T07:27:25.297Z,615.00
2023-05-21T07:28:17.501Z,615.00
2023-05-21T07:29:16.484Z,616.00
2023-05-21T07:30:16.476Z,617.00
2023-05-21T07:31:16.503Z,617.00
2023-05-21T07:32:16.480Z,620.00
2023-05-21T07:33:16.476Z,618.00
2023-05-21T07:34:16.447Z,617.00
2023-05-21T07:35:16.453Z,618.00
2023-05-21T07:36:16.495Z,619.00
2023-05-21T07:37:16.468Z,614.00
2023-05-21T07:38:16.524Z,615.00
2023-05-21T07:39:16.558Z,617.00
2023-05-21T07:40:16.631Z,617.00
2023-05-21T07:41:18.663Z,619.00
2023-05-21T07:42:16.687Z,621.00
2023-05-21T07:43:16.715Z,614.00
2023-05-21T07:44:16.755Z,622.00
2023-05-21T07:45:16.792Z,617.00
2023-05-21T07:46:16.881Z,621.00
2023-05-21T07:47:16.868Z,619.00
2023-05-21T07:48:16.910Z,619.00
2023-05-21T07:49:17.122Z,619.00
2023-05-21T07:50:16.980Z,615.00
2023-05-21T07:51:17.020Z,621.00
2023-05-21T07:52:17.062Z,621.00
2023-05-21T07:53:17.090Z,620.00
2023-05-21T07:54:17.117Z,621.00
2023-05-21T07:55:17.151Z,623.00
2023-05-21T07:56:17.241Z,624.00
2023-05-21T07:57:17.217Z,619.00
2023-05-21T07:58:17.242Z,619.00
2023-05-21T07:59:17.274Z,618.00
2023-05-21T08:00:17.310Z,621.00
2023-05-21T08:01:17.386Z,620.00
2023-05-21T08:02:17.396Z,623.00
2023-05-21T08:03:17.590Z,622.00
2023-05-21T08:04:17.568Z,622.00
2023-05-21T08:05:17.521Z,620.00
2023-05-21T08:06:17.545Z,620.00
2023-05-21T08:07:17.570Z,619.00
2023-05-21T08:08:17.613Z,620.00
2023-05-21T08:09:17.642Z,620.00
2023-05-21T08:10:19.240Z,621.00
2023-05-21T08:11:17.727Z,622.00
2023-05-21T08:12:17.800Z,622.00
2023-05-21T08:13:17.814Z,625.00
2023-05-21T08:14:17.832Z,621.00
2023-05-21T08:15:17.865Z,622.00
2023-05-21T08:16:17.956Z,622.00
2023-05-21T08:17:17.952Z,622.00
2023-05-21T08:18:17.998Z,626.00
2023-05-21T08:19:18.054Z,623.00
2023-05-21T08:20:18.066Z,623.00
2023-05-21T08:21:18.103Z,622.00
2023-05-21T08:22:18.138Z,624.00
2023-05-21T08:23:18.179Z,623.00
2023-05-21T08:24:18.222Z,625.00
2023-05-21T08:25:18.257Z,623.00
2023-05-21T08:26:18.301Z,623.00
2023-05-21T08:27:18.335Z,625.00
2023-05-21T08:28:18.380Z,623.00
2023-05-21T08:29:18.413Z,628.00
2023-05-21T08:30:18.485Z,626.00
2023-05-21T08:31:18.517Z,626.00
2023-05-21T08:32:18.523Z,630.00
2023-05-21T08:33:20.831Z,626.00
2023-05-21T08:34:18.560Z,628.00
2023-05-21T08:35:18.529Z,629.00
2023-05-21T08:36:18.508Z,631.00
2023-05-21T08:37:18.527Z,626.00
2023-05-21T08:38:18.524Z,629.00
2023-05-21T08:39:18.509Z,628.00
2023-05-21T08:40:18.494Z,630.00
2023-05-21T08:41:18.478Z,630.00
2023-05-21T08:42:32.944Z,631.00
2023-05-21T08:43:19.463Z,631.00
2023-05-21T08:44:18.462Z,632.00
2023-05-21T08:45:18.456Z,632.00
2023-05-21T08:46:18.554Z,632.00
2023-05-21T08:47:18.445Z,629.00
2023-05-21T08:48:18.438Z,631.00
2023-05-21T08:49:19.014Z,630.00
2023-05-21T08:50:18.422Z,632.00
2023-05-21T08:51:18.412Z,631.00
2023-05-21T08:52:18.412Z,629.00
2023-05-21T08:53:27.508Z,628.00
2023-05-21T08:54:19.399Z,629.00
2023-05-21T08:55:18.397Z,629.00
2023-05-21T08:56:18.461Z,630.00
2023-05-21T08:57:18.375Z,631.00
2023-05-21T08:58:18.370Z,630.00
2023-05-21T08:59:18.364Z,633.00
2023-05-21T09:00:18.369Z,634.00
2023-05-21T09:01:18.398Z,635.00
2023-05-21T09:02:18.367Z,635.00
2023-05-21T09:03:18.485Z,633.00
2023-05-21T09:04:20.862Z,635.00
2023-05-21T09:05:18.323Z,635.00
2023-05-21T09:06:18.315Z,633.00
2023-05-21T09:07:18.320Z,633.00
2023-05-21T09:08:18.312Z,635.00
2023-05-21T09:09:18.315Z,633.00
2023-05-21T09:10:18.298Z,634.00
2023-05-21T09:11:18.373Z,632.00
2023-05-21T09:12:18.283Z,631.00
2023-05-21T09:13:18.275Z,629.00
2023-05-21T09:14:18.258Z,626.00
2023-05-21T09:15:18.274Z,630.00
2023-05-21T09:16:18.294Z,630.00
2023-05-21T09:17:18.285Z,629.00
2023-05-21T09:18:18.238Z,632.00
2023-05-21T09:19:18.287Z,630.00
2023-05-21T09:20:18.241Z,627.00
2023-05-21T09:21:18.225Z,629.00
2023-05-21T09:22:18.214Z,631.00
2023-05-21T09:23:18.219Z,630.00
2023-05-21T09:24:18.215Z,632.00
2023-05-21T09:25:18.265Z,630.00
2023-05-21T09:26:18.195Z,632.00
2023-05-21T09:27:19.065Z,632.00
2023-05-21T09:28:18.181Z,635.00
2023-05-21T09:29:18.178Z,633.00
2023-05-21T09:30:18.172Z,633.00
2023-05-21T09:31:18.173Z,635.00
2023-05-21T09:32:18.143Z,632.00
2023-05-21T09:33:18.143Z,634.00
2023-05-21T09:34:18.130Z,632.00
2023-05-21T09:35:18.146Z,634.00
2023-05-21T09:36:18.121Z,635.00
2023-05-21T09:37:27.046Z,634.00
2023-05-21T09:38:19.132Z,634.00
2023-05-21T09:39:18.095Z,634.00
2023-05-21T09:40:18.093Z,636.00
2023-05-21T09:41:21.161Z,636.00
2023-05-21T09:42:18.082Z,634.00
2023-05-21T09:43:18.084Z,635.00
2023-05-21T09:44:18.072Z,637.00
2023-05-21T09:45:18.057Z,639.00
2023-05-21T09:46:18.064Z,642.00
2023-05-21T09:47:18.041Z,636.00
2023-05-21T09:48:18.034Z,640.00
2023-05-21T09:49:18.025Z,636.00
2023-05-21T09:50:18.051Z,640.00
2023-05-21T09:51:18.032Z,631.00
2023-05-21T09:52:18.004Z,636.00
2023-05-21T09:53:17.996Z,637.00
2023-05-21T09:54:17.991Z,638.00
2023-05-21T09:55:17.999Z,637.00
2023-05-21T09:56:17.981Z,639.00
2023-05-21T09:57:17.976Z,635.00
2023-05-21T09:58:17.976Z,637.00
2023-05-21T09:59:17.967Z,638.00
2023-05-21T10:00:17.993Z,635.00
2023-05-21T10:01:17.991Z,636.00
2023-05-21T10:02:18.037Z,635.00
2023-05-21T10:03:18.060Z,638.00
2023-05-21T10:04:17.954Z,636.00
2023-05-21T10:05:17.936Z,639.00
2023-05-21T10:06:17.936Z,640.00
2023-05-21T10:07:17.915Z,638.00
2023-05-21T10:08:17.906Z,641.00
2023-05-21T10:09:17.900Z,639.00
2023-05-21T10:10:17.898Z,640.00
2023-05-21T10:11:17.903Z,641.00
2023-05-21T10:12:17.901Z,642.00
2023-05-21T10:13:17.866Z,640.00
2023-05-21T10:14:17.863Z,641.00
2023-05-21T10:15:17.854Z,638.00
2023-05-21T10:16:17.872Z,639.00
2023-05-21T10:17:17.851Z,640.00
2023-05-21T10:18:17.834Z,636.00
2023-05-21T10:19:17.865Z,639.00
2023-05-21T10:20:17.847Z,636.00
2023-05-21T10:21:17.814Z,638.00
2023-05-21T10:22:17.811Z,635.00
2023-05-21T10:23:17.795Z,637.00
2023-05-21T10:24:17.789Z,638.00
2023-05-21T10:25:17.791Z,638.00
2023-05-21T10:26:17.780Z,638.00
2023-05-21T10:27:17.768Z,637.00
2023-05-21T10:28:17.762Z,641.00
2023-05-21T10:29:19.651Z,639.00
2023-05-21T10:30:17.750Z,640.00
2023-05-21T10:31:17.741Z,638.00
2023-05-21T10:32:17.843Z,642.00
2023-05-21T10:33:17.758Z,644.00
2023-05-21T10:34:17.751Z,644.00
2023-05-21T10:35:17.723Z,647.00
2023-05-21T10:36:17.710Z,645.00
2023-05-21T10:37:17.774Z,647.00
2023-05-21T10:38:17.685Z,644.00
2023-05-21T10:39:17.708Z,642.00
2023-05-21T10:40:17.750Z,646.00
2023-05-21T10:41:18.053Z,647.00
2023-05-21T10:42:17.811Z,647.00
2023-05-21T10:43:17.905Z,650.00
2023-05-21T10:44:17.854Z,647.00
2023-05-21T10:45:17.890Z,651.00
2023-05-21T10:46:17.953Z,650.00
2023-05-21T10:47:17.972Z,650.00
2023-05-21T10:48:18.000Z,650.00
2023-05-21T10:49:18.015Z,651.00
2023-05-21T10:50:18.047Z,647.00
2023-05-21T10:51:18.073Z,649.00
2023-05-21T10:52:18.108Z,647.00
2023-05-21T10:53:18.145Z,649.00
2023-05-21T10:54:18.182Z,647.00
2023-05-21T10:55:18.252Z,646.00
2023-05-21T10:56:18.248Z,648.00
2023-05-21T10:57:19.047Z,646.00
2023-05-21T10:58:18.308Z,651.00
2023-05-21T10:59:18.394Z,651.00
2023-05-21T11:00:18.387Z,649.00
2023-05-21T11:01:18.424Z,653.00
2023-05-21T11:02:18.483Z,652.00
2023-05-21T11:03:18.582Z,653.00
2023-05-21T11:04:18.524Z,653.00
2023-05-21T11:05:19.560Z,649.00
2023-05-21T11:06:18.601Z,652.00
2023-05-21T11:07:18.699Z,653.00
2023-05-21T11:08:18.692Z,653.00
2023-05-21T11:09:18.766Z,655.00
2023-05-21T11:10:18.828Z,652.00
2023-05-21T11:11:18.791Z,650.00
2023-05-21T11:12:18.846Z,659.00
2023-05-21T11:13:18.876Z,652.00
2023-05-21T11:14:20.812Z,657.00
2023-05-21T11:15:18.944Z,653.00
2023-05-21T11:16:19.054Z,654.00
2023-05-21T11:17:19.683Z,658.00
2023-05-21T11:18:19.085Z,655.00
2023-05-21T11:19:19.252Z,654.00
2023-05-21T11:20:19.166Z,655.00
2023-05-21T11:21:19.214Z,653.00
2023-05-21T11:22:19.250Z,653.00
2023-05-21T11:23:19.290Z,653.00
2023-05-21T11:24:19.353Z,652.00
2023-05-21T11:25:19.401Z,658.00
2023-05-21T11:26:19.434Z,656.00
2023-05-21T11:27:19.475Z,654.00
2023-05-21T11:28:19.524Z,658.00
2023-05-21T11:29:20.553Z,659.00
2023-05-21T11:30:19.624Z,653.00
2023-05-21T11:31:19.694Z,654.00
2023-05-21T11:32:19.700Z,661.00
2023-05-21T11:33:19.723Z,656.00
2023-05-21T11:34:19.768Z,654.00
2023-05-21T11:35:19.809Z,659.00
2023-05-21T11:36:19.936Z,659.00
2023-05-21T11:37:19.926Z,660.00
2023-05-21T11:38:19.920Z,660.00
2023-05-21T11:39:20.031Z,657.00
2023-05-21T11:40:19.991Z,663.00
2023-05-21T11:41:20.048Z,660.00
2023-05-21T11:42:20.069Z,660.00
2023-05-21T11:43:20.112Z,663.00
2023-05-21T11:44:20.164Z,658.00
2023-05-21T11:45:20.198Z,665.00
2023-05-21T11:46:20.291Z,662.00
2023-05-21T11:47:20.296Z,658.00
2023-05-21T11:48:20.309Z,660.00
2023-05-21T11:49:20.354Z,658.00
2023-05-21T11:50:20.406Z,655.00
2023-05-21T11:51:20.423Z,659.00
2023-05-21T11:52:20.468Z,657.00
2023-05-21T11:53:20.504Z,658.00
2023-05-21T11:54:20.548Z,660.00
2023-05-21T11:55:20.658Z,660.00
2023-05-21T11:56:20.618Z,656.00
2023-05-21T11:57:20.713Z,657.00
2023-05-21T11:58:20.701Z,659.00
2023-05-21T11:59:20.727Z,654.00
2023-05-21T12:00:20.760Z,656.00
2023-05-21T12:01:20.807Z,655.00
2023-05-21T12:02:20.988Z,654.00
2023-05-21T12:03:21.615Z,656.00
2023-05-21T12:04:20.960Z,656.00
2023-05-21T12:05:21.055Z,656.00
2023-05-21T12:06:21.131Z,657.00
2023-05-21T12:07:21.098Z,659.00
2023-05-21T12:08:21.140Z,660.00
2023-05-21T12:09:21.202Z,656.00
2023-05-21T12:10:21.260Z,662.00
2023-05-21T12:11:21.312Z,657.00
2023-05-21T12:12:21.363Z,660.00
2023-05-21T12:13:21.392Z,658.00
2023-05-21T12:14:21.476Z,662.00
2023-05-21T12:15:21.504Z,660.00
2023-05-21T12:16:21.603Z,661.00
2023-05-21T12:17:21.623Z,662.00
2023-05-21T12:18:21.694Z,659.00
2023-05-21T12:19:21.804Z,655.00
2023-05-21T12:20:21.777Z,658.00
2023-05-21T12:21:21.834Z,653.00
2023-05-21T12:22:21.887Z,651.00
2023-05-21T12:23:21.940Z,652.00
2023-05-21T12:24:21.989Z,659.00
2023-05-21T12:25:22.063Z,657.00
2023-05-21T12:26:22.110Z,658.00
2023-05-21T12:27:22.159Z,658.00
2023-05-21T12:28:22.207Z,663.00